WetterOnline ( https://www.wetteronline.de )

Wetter aktuell Pilsen

Aktuelles Wetter: Plzen-Mikulka (371m)

6-stündlich | Neueste Meldungen
Ortszeit Temperatur Wetter
Sa, 31.10. 1:00 11.5° C fast wolkenlos
Fr, 30.10. 19:00 12.1° C leichter Regen
Fr, 30.10. 13:00 12.7° C bedeckt
Fr, 30.10. 7:00 8.8° C leichter Regen
Fr, 30.10. 1:00 7.6° C leichter Regen
Do, 29.10. 19:00 7.0° C wolkig
Do, 29.10. 13:00 8.4° C leichte Schauer
Do, 29.10. 7:00 9.4° C bewölkt
Ortszeit Temperatur Wetter
Sa, 31.10. 6:00 11.2° C bedeckt
Sa, 31.10. 5:00 11.0° C bewölkt
Sa, 31.10. 4:00 11.2° C bedeckt
Sa, 31.10. 3:00 10.9° C bedeckt
Sa, 31.10. 2:00 11.1° C wolkig
Sa, 31.10. 1:00 11.5° C fast wolkenlos
Ortszeit Relative Feuchte Sichtweite
Sa, 31.10. 1:00 88% 35 km
Fr, 30.10. 19:00 86% 35 km
Fr, 30.10. 13:00 86% 35 km
Fr, 30.10. 7:00 99% 13 km
Fr, 30.10. 1:00 89% 35 km
Do, 29.10. 19:00 86% 35 km
Do, 29.10. 13:00 81% 5.0 km
Do, 29.10. 7:00 92% 30 km
Ortszeit Relative Feuchte Sichtweite
Sa, 31.10. 6:00 89% 35 km
Sa, 31.10. 5:00 90% 35 km
Sa, 31.10. 4:00 89% 35 km
Sa, 31.10. 3:00 92% 35 km
Sa, 31.10. 2:00 89% 35 km
Sa, 31.10. 1:00 88% 35 km
Ortszeit Niederschlagsmenge Niederschlagsart
Sa, 31.10. 1:00 0.0 l/m2 in 6 Std. Schauer
Fr, 30.10. 19:00 0.2 l/m2 in 12 Std. -
Fr, 30.10. 13:00 0.2 l/m2 in 6 Std. Regen
Fr, 30.10. 7:00 3 l/m2 in 12 Std. -
Fr, 30.10. 1:00 0.1 l/m2 in 6 Std. Schauer
Do, 29.10. 19:00 0.5 l/m2 in 12 Std. -
Do, 29.10. 13:00 0.2 l/m2 in 6 Std. Regenschauer
Do, 29.10. 7:00 0.3 l/m2 in 12 Std. Regen
Ortszeit Niederschlagsmenge Niederschlagsart
Sa, 31.10. 6:00 0.0 l/m2 in 1 Std. -
Sa, 31.10. 5:00 0.0 l/m2 in 1 Std. -
Sa, 31.10. 4:00 0.0 l/m2 in 1 Std. -
Sa, 31.10. 3:00 0.0 l/m2 in 1 Std. -
Sa, 31.10. 2:00 0.0 l/m2 in 1 Std. -
Sa, 31.10. 1:00 0.0 l/m2 in 1 Std. Schauer
Ortszeit Stärke Spitze Richtung
km/h Bft. km/h Grad Sektor
Sa, 31.10. 1:00 14 3 - 240° SW
Fr, 30.10. 19:00 14 3 - 230° SW
Fr, 30.10. 13:00 18 3 - 240° SW
Fr, 30.10. 7:00 11 2 - 210° SW
Fr, 30.10. 1:00 11 2 - 200° S
Do, 29.10. 19:00 11 2 68 240° SW
Do, 29.10. 13:00 36 5 43 250° W
Do, 29.10. 7:00 18 3 - 200° S
Ortszeit Stärke Spitze Richtung
km/h Bft. km/h Grad Sektor
Sa, 31.10. 6:00 18 3 - 230° SW
Sa, 31.10. 5:00 14 3 - 230° SW
Sa, 31.10. 4:00 14 3 - 240° SW
Sa, 31.10. 3:00 11 2 - 240° SW
Sa, 31.10. 2:00 14 3 - 250° W
Sa, 31.10. 1:00 14 3 - 240° SW
Ortszeit Untergrenze Bedeckung Gattung
total tief tief mittel hoch
Sa, 31.10. 1:00 480 m - 1/8 - - -
Fr, 30.10. 19:00 480 m 8/8 8/8 Sc - -
Fr, 30.10. 13:00 450 m 8/8 3/8 Sc As -
Fr, 30.10. 7:00 150 m 8/8 8/8 St - -
Fr, 30.10. 1:00 510 m - 8/8 - - -
Do, 29.10. 19:00 2100 m 7/8 6/8 - Ac Cs
Do, 29.10. 13:00 - 7/8 7/8 Cb - -
Do, 29.10. 7:00 180 m 8/8 7/8 Sc Ns -
Ortszeit Bedeckungsgrad in Achtel und Wolkenuntergrenze
Sa, 31.10. 6:00 8(390m)
Sa, 31.10. 5:00 1(660m) 7(1500m)
Sa, 31.10. 4:00 8(1020m)
Sa, 31.10. 3:00 8(1230m)
Sa, 31.10. 2:00 1(450m) 6(1260m)
Sa, 31.10. 1:00 1(480m) 8(3300m)
Ortszeit Luftdruck NN (hPa) Tendenz (hPa in 3 Std.)
Sa, 31.10. 1:00 1024 + 0,3
Fr, 30.10. 19:00 1022 + 1,3
Fr, 30.10. 13:00 1020 0,0
Fr, 30.10. 7:00 1020 0,0
Fr, 30.10. 1:00 1022 - 0,5
Do, 29.10. 19:00 1022 + 1,5
Do, 29.10. 13:00 1018 + 1,8
Do, 29.10. 7:00 1014 - 0,2
Ortszeit Luftdruck NN (hPa) Tendenz (hPa in 3 Std.)
Sa, 31.10. 6:00 1024 + 0,1
Sa, 31.10. 5:00 1024 + 0,2
Sa, 31.10. 4:00 1024 + 0,2
Sa, 31.10. 3:00 1024 + 0,4
Sa, 31.10. 2:00 1024 + 0,4
Sa, 31.10. 1:00 1024 + 0,3
Ortszeit Schneehöhe (cm)
Sa, 31.10. 1:00 -
Fr, 30.10. 19:00 -
Fr, 30.10. 13:00 -
Fr, 30.10. 7:00 -
Fr, 30.10. 1:00 -
Do, 29.10. 19:00 -
Do, 29.10. 13:00 -
Do, 29.10. 7:00 -
Ortszeit Schneehöhe (cm)
Sa, 31.10. 6:00 -
Sa, 31.10. 5:00 -
Sa, 31.10. 4:00 -
Sa, 31.10. 3:00 -
Sa, 31.10. 2:00 -
Sa, 31.10. 1:00 -
Link zu dieser Seite / Seite empfehlen

Das Wetter in ...